createdAt,value
2024-01-01T00:02:18.473Z,72.40
2024-01-01T00:04:48.121Z,72.18
2024-01-01T00:07:15.166Z,72.31
2024-01-01T00:09:42.270Z,72.24
2024-01-01T00:12:09.562Z,72.23
2024-01-01T00:14:36.615Z,72.20
2024-01-01T00:17:03.961Z,72.22
2024-01-01T00:19:31.115Z,71.83
2024-01-01T00:22:00.831Z,71.86
2024-01-01T00:24:27.948Z,71.59
2024-01-01T00:26:54.938Z,71.45
2024-01-01T00:29:27.753Z,71.38
2024-01-01T00:31:58.235Z,71.52
2024-01-01T00:34:25.297Z,71.19
2024-01-01T00:36:52.393Z,71.53
2024-01-01T00:39:22.026Z,71.46
2024-01-01T00:41:49.060Z,71.69
2024-01-01T00:44:16.198Z,71.67
2024-01-01T00:46:43.834Z,71.81
2024-01-01T00:49:10.917Z,72.26
2024-01-01T00:51:37.954Z,72.35
2024-01-01T00:54:05.127Z,72.38
2024-01-01T00:56:34.791Z,72.54
2024-01-01T00:59:01.970Z,72.97
2024-01-01T01:01:29.035Z,73.05
2024-01-01T01:03:56.182Z,73.27
2024-01-01T01:06:25.329Z,73.66
2024-01-01T01:08:52.997Z,74.46
2024-01-01T01:11:20.067Z,76.06
2024-01-01T01:13:49.746Z,76.43
2024-01-01T01:16:16.919Z,76.63
2024-01-01T01:18:44.103Z,76.81
2024-01-01T01:21:11.145Z,76.68
2024-01-01T01:23:38.327Z,76.78
2024-01-01T01:26:05.464Z,76.67
2024-01-01T01:28:32.539Z,76.46
2024-01-01T01:31:02.544Z,76.59
2024-01-01T01:33:29.680Z,76.59
2024-01-01T01:35:56.772Z,76.40
2024-01-01T01:38:23.875Z,76.22
2024-01-01T01:40:51.115Z,75.85
2024-01-01T01:43:22.983Z,75.78
2024-01-01T01:45:52.009Z,75.47
2024-01-01T01:48:22.968Z,75.22
2024-01-01T01:50:52.127Z,74.71
2024-01-01T01:53:21.579Z,74.71
2024-01-01T01:55:48.713Z,74.22
2024-01-01T01:58:15.970Z,74.37
2024-01-01T02:00:43.570Z,73.92
2024-01-01T02:03:10.616Z,74.24
2024-01-01T02:05:40.764Z,74.06
2024-01-01T02:08:09.378Z,74.11
2024-01-01T02:10:37.069Z,73.84
2024-01-01T02:13:04.443Z,74.05
2024-01-01T02:15:31.553Z,74.06
2024-01-01T02:17:58.607Z,74.11
2024-01-01T02:20:25.984Z,74.27
2024-01-01T02:22:57.503Z,74.53
2024-01-01T02:25:24.672Z,74.47
2024-01-01T02:27:51.764Z,74.70
2024-01-01T02:30:18.984Z,74.78
2024-01-01T02:32:46.092Z,75.06
2024-01-01T02:35:13.291Z,75.01
2024-01-01T02:37:40.453Z,75.14
2024-01-01T02:40:11.652Z,75.11
2024-01-01T02:42:38.813Z,75.01
2024-01-01T02:45:07.800Z,75.09
2024-01-01T02:47:34.877Z,75.05
2024-01-01T02:50:02.044Z,75.12
2024-01-01T02:52:29.134Z,75.14
2024-01-01T02:54:56.174Z,75.01
2024-01-01T02:57:27.015Z,75.09
2024-01-01T02:59:54.057Z,75.27
2024-01-01T03:02:21.053Z,75.36
2024-01-01T03:04:48.140Z,75.33
2024-01-01T03:07:16.303Z,75.33
2024-01-01T03:09:43.335Z,75.17
2024-01-01T03:12:10.344Z,75.10
2024-01-01T03:14:39.966Z,75.31
2024-01-01T03:17:06.968Z,75.49
2024-01-01T03:19:34.042Z,75.21
2024-01-01T03:22:01.068Z,75.29
2024-01-01T03:24:28.032Z,75.27
2024-01-01T03:26:55.020Z,75.48
2024-01-01T03:29:22.115Z,76.13
2024-01-01T03:31:51.817Z,76.33
2024-01-01T03:34:18.870Z,76.24
2024-01-01T03:36:45.927Z,76.38
2024-01-01T03:39:13.044Z,76.30
2024-01-01T03:41:40.126Z,75.98
2024-01-01T03:44:07.200Z,75.62
2024-01-01T03:46:34.287Z,75.31
2024-01-01T03:49:04.027Z,74.82
2024-01-01T03:51:31.102Z,74.86
2024-01-01T03:53:58.208Z,74.54
2024-01-01T03:56:25.340Z,74.30
2024-01-01T03:58:52.379Z,74.51
2024-01-01T04:01:21.362Z,74.22
2024-01-01T04:03:48.496Z,73.82
2024-01-01T04:06:18.184Z,73.87
2024-01-01T04:08:45.255Z,73.86
2024-01-01T04:11:12.414Z,74.02
2024-01-01T04:13:39.542Z,73.92
2024-01-01T04:16:07.096Z,73.55
2024-01-01T04:18:34.274Z,73.25
2024-01-01T04:21:01.422Z,72.77
2024-01-01T04:23:31.482Z,71.78
2024-01-01T04:25:58.583Z,71.81
2024-01-01T04:28:25.606Z,71.63
2024-01-01T04:30:52.613Z,71.40
2024-01-01T04:33:19.856Z,71.19
2024-01-01T04:35:46.907Z,71.24
2024-01-01T04:38:14.167Z,71.18
2024-01-01T04:40:43.983Z,71.06
2024-01-01T04:43:11.100Z,70.75
2024-01-01T04:45:38.318Z,70.96
2024-01-01T04:48:07.232Z,70.78
2024-01-01T04:50:34.599Z,70.78
2024-01-01T04:53:01.615Z,70.91
2024-01-01T04:55:28.833Z,70.83
2024-01-01T04:57:58.470Z,70.67
2024-01-01T05:00:25.479Z,70.49
2024-01-01T05:02:52.479Z,70.57
2024-01-01T05:05:19.528Z,70.47
2024-01-01T05:07:46.660Z,70.12
2024-01-01T05:10:13.837Z,70.17
2024-01-01T05:12:40.908Z,70.15
2024-01-01T05:15:12.778Z,70.12
2024-01-01T05:17:39.963Z,70.10
2024-01-01T05:20:08.743Z,69.67
2024-01-01T05:22:35.826Z,69.77
2024-01-01T05:25:02.991Z,69.92
2024-01-01T05:27:30.085Z,69.42
2024-01-01T05:29:57.093Z,69.30
2024-01-01T05:32:26.862Z,69.41
2024-01-01T05:34:54.018Z,69.32
2024-01-01T05:37:21.053Z,68.64
2024-01-01T05:39:48.038Z,68.72
2024-01-01T05:42:15.162Z,68.96
2024-01-01T05:44:42.234Z,68.80
2024-01-01T05:47:09.373Z,68.59
2024-01-01T05:49:39.138Z,68.46
2024-01-01T05:52:06.466Z,68.46
2024-01-01T05:54:33.501Z,68.49
2024-01-01T05:57:00.535Z,67.88
2024-01-01T05:59:27.671Z,67.83
2024-01-01T06:01:54.795Z,67.62
2024-01-01T06:04:21.935Z,67.79
2024-01-01T06:06:51.691Z,67.77
2024-01-01T06:09:18.733Z,67.84
2024-01-01T06:11:45.728Z,67.68
2024-01-01T06:14:12.898Z,67.71
2024-01-01T06:16:39.996Z,67.73
2024-01-01T06:19:07.121Z,67.88
2024-01-01T06:21:34.116Z,67.54
2024-01-01T06:24:03.845Z,67.72
2024-01-01T06:26:30.883Z,67.78
2024-01-01T06:28:58.012Z,67.79
2024-01-01T06:31:25.038Z,68.13
2024-01-01T06:33:52.181Z,68.45
2024-01-01T06:36:19.288Z,68.66
2024-01-01T06:38:46.290Z,68.60
2024-01-01T06:41:15.982Z,68.62
2024-01-01T06:43:43.111Z,68.66
2024-01-01T06:46:10.256Z,68.91
2024-01-01T06:48:37.415Z,69.11
2024-01-01T06:51:09.811Z,69.33
2024-01-01T06:53:36.821Z,69.13
2024-01-01T06:56:04.122Z,69.32
2024-01-01T06:58:33.773Z,69.32
2024-01-01T07:01:00.935Z,69.32
2024-01-01T07:03:28.056Z,69.51
2024-01-01T07:05:55.134Z,69.73
2024-01-01T07:08:22.444Z,69.48
2024-01-01T07:10:49.705Z,69.69
2024-01-01T07:13:16.757Z,70.14
2024-01-01T07:15:46.403Z,70.09
2024-01-01T07:18:13.598Z,70.18
2024-01-01T07:20:40.789Z,70.13
2024-01-01T07:23:07.869Z,70.40
2024-01-01T07:25:34.970Z,70.60
2024-01-01T07:28:02.063Z,70.68
2024-01-01T07:30:29.109Z,70.73
2024-01-01T07:32:58.725Z,70.77
2024-01-01T07:35:25.814Z,70.61
2024-01-01T07:37:52.991Z,70.77
2024-01-01T07:40:20.298Z,70.69
2024-01-01T07:42:47.301Z,70.72
2024-01-01T07:45:14.507Z,70.65
2024-01-01T07:47:41.543Z,70.90
2024-01-01T07:50:11.567Z,70.97
2024-01-01T07:52:38.715Z,70.89
2024-01-01T07:55:07.032Z,71.06
2024-01-01T07:57:34.040Z,71.35
2024-01-01T08:00:01.134Z,71.01
2024-01-01T08:02:28.293Z,70.97
2024-01-01T08:04:55.479Z,71.19
2024-01-01T08:07:25.173Z,71.32
2024-01-01T08:09:52.358Z,71.43
2024-01-01T08:12:19.392Z,71.41
2024-01-01T08:14:46.406Z,71.75
2024-01-01T08:17:13.512Z,71.45
2024-01-01T08:19:40.726Z,71.61
2024-01-01T08:22:07.823Z,71.22
2024-01-01T08:24:37.538Z,71.21
2024-01-01T08:27:05.349Z,71.16
2024-01-01T08:29:35.149Z,70.69
2024-01-01T08:32:03.819Z,70.37
2024-01-01T08:34:30.840Z,70.15
2024-01-01T08:36:57.850Z,70.11
2024-01-01T08:39:24.866Z,69.96
2024-01-01T08:41:54.822Z,69.80
2024-01-01T08:44:21.966Z,69.67
2024-01-01T08:46:49.018Z,69.57
2024-01-01T08:49:16.078Z,69.67
2024-01-01T08:51:43.171Z,69.90
2024-01-01T08:54:10.203Z,69.65
2024-01-01T08:56:37.178Z,69.73
2024-01-01T08:59:06.844Z,69.80
2024-01-01T09:01:33.995Z,69.74
2024-01-01T09:04:01.059Z,69.61
2024-01-01T09:06:28.212Z,69.45
2024-01-01T09:08:55.180Z,69.51
2024-01-01T09:11:22.302Z,69.49
2024-01-01T09:13:49.360Z,69.48
2024-01-01T09:16:19.044Z,69.63
2024-01-01T09:18:46.120Z,69.38
2024-01-01T09:21:17.423Z,69.46
2024-01-01T09:23:44.534Z,69.38
2024-01-01T09:26:14.295Z,69.04
2024-01-01T09:28:41.586Z,68.86
2024-01-01T09:31:08.785Z,68.78
2024-01-01T09:33:38.879Z,68.16
2024-01-01T09:36:06.870Z,68.34
2024-01-01T09:38:34.341Z,68.17
2024-01-01T09:41:01.553Z,67.69
2024-01-01T09:43:28.710Z,67.52
2024-01-01T09:45:56.928Z,67.50
2024-01-01T09:48:24.161Z,66.88
2024-01-01T09:50:55.948Z,66.57
2024-01-01T09:53:24.751Z,66.26
2024-01-01T09:55:53.090Z,65.79
2024-01-01T09:58:20.374Z,65.59
2024-01-01T10:00:47.515Z,65.15
2024-01-01T10:03:14.651Z,65.08
2024-01-01T10:05:42.721Z,64.92
2024-01-01T10:08:13.946Z,64.45
2024-01-01T10:10:43.208Z,64.62
2024-01-01T10:13:11.329Z,64.79
2024-01-01T10:15:39.890Z,65.16
2024-01-01T10:18:11.569Z,65.23
2024-01-01T10:20:40.044Z,65.31
2024-01-01T10:23:30.662Z,65.39
2024-01-01T10:26:05.937Z,65.59
2024-01-01T10:28:34.126Z,65.43
2024-01-01T10:31:02.857Z,65.43
2024-01-01T10:33:30.309Z,66.05
2024-01-01T10:36:01.080Z,66.39
2024-01-01T10:38:32.156Z,67.37
2024-01-01T10:41:00.657Z,67.29
2024-01-01T10:43:27.876Z,67.04
2024-01-01T10:46:02.230Z,67.09
2024-01-01T10:48:31.098Z,67.00
2024-01-01T10:51:22.422Z,66.81
2024-01-01T10:54:06.543Z,66.44
2024-01-01T10:56:46.180Z,66.82
2024-01-01T10:59:21.027Z,66.47
2024-01-01T11:01:50.153Z,66.60
2024-01-01T11:04:20.532Z,66.83
2024-01-01T11:06:47.533Z,66.82
2024-01-01T11:09:32.914Z,66.76
2024-01-01T11:12:00.032Z,66.79
2024-01-01T11:14:29.026Z,66.53
2024-01-01T11:17:02.537Z,65.88
2024-01-01T11:19:39.032Z,65.71
2024-01-01T11:22:33.677Z,65.45
2024-01-01T11:25:03.793Z,65.62
2024-01-01T11:27:32.067Z,65.62
2024-01-01T11:30:03.394Z,65.48
2024-01-01T11:32:30.697Z,65.45
2024-01-01T11:35:09.362Z,65.59
2024-01-01T11:37:37.909Z,65.50
2024-01-01T11:40:09.054Z,65.91
2024-01-01T11:42:36.671Z,66.00
2024-01-01T11:45:08.568Z,65.94
2024-01-01T11:47:36.428Z,66.18
2024-01-01T11:50:05.217Z,65.95
2024-01-01T11:52:32.510Z,66.09
2024-01-01T11:55:00.460Z,65.63
2024-01-01T11:57:30.367Z,65.34
2024-01-01T11:59:57.958Z,64.35
2024-01-01T12:02:26.233Z,63.86
2024-01-01T12:04:55.223Z,64.13
2024-01-01T12:07:30.831Z,64.94
2024-01-01T12:10:02.312Z,65.21
2024-01-01T12:12:31.976Z,64.61
2024-01-01T12:15:09.557Z,63.84
2024-01-01T12:17:42.561Z,63.44
2024-01-01T12:20:11.273Z,63.98
2024-01-01T12:22:38.684Z,64.24
2024-01-01T12:25:06.553Z,64.30
2024-01-01T12:27:36.163Z,64.49
2024-01-01T12:30:03.392Z,64.83
2024-01-01T12:32:31.408Z,65.16
2024-01-01T12:34:58.537Z,65.21
2024-01-01T12:37:27.062Z,65.58
2024-01-01T12:39:54.088Z,65.21
2024-01-01T12:42:21.126Z,65.32
2024-01-01T12:44:50.721Z,65.38
2024-01-01T12:47:17.767Z,65.47
2024-01-01T12:49:44.882Z,65.45
2024-01-01T12:52:11.968Z,65.58
2024-01-01T12:54:38.981Z,65.21
2024-01-01T12:57:06.480Z,64.88
2024-01-01T12:59:33.531Z,64.57
2024-01-01T13:02:03.507Z,64.48
2024-01-01T13:04:30.578Z,64.27
2024-01-01T13:06:57.570Z,64.36
2024-01-01T13:09:24.621Z,64.37
2024-01-01T13:11:51.948Z,64.28
2024-01-01T13:14:19.040Z,64.30
2024-01-01T13:16:46.136Z,64.34
2024-01-01T13:19:15.897Z,64.08
2024-01-01T13:21:43.151Z,63.79
2024-01-01T13:24:10.357Z,63.13
2024-01-01T13:26:37.400Z,62.26
2024-01-01T13:29:04.464Z,62.44
2024-01-01T13:31:31.579Z,62.08
2024-01-01T13:33:58.590Z,61.76
2024-01-01T13:36:28.255Z,61.55
2024-01-01T13:38:55.445Z,61.61
2024-01-01T13:41:22.909Z,61.54
2024-01-01T13:43:50.245Z,61.26
2024-01-01T13:46:17.419Z,61.19
2024-01-01T13:48:44.773Z,61.04
2024-01-01T13:51:16.726Z,61.56
2024-01-01T13:53:47.320Z,61.49
2024-01-01T13:56:18.412Z,61.76
2024-01-01T13:58:45.659Z,62.04
2024-01-01T14:01:12.840Z,61.98
2024-01-01T14:03:40.000Z,62.19
2024-01-01T14:06:07.222Z,62.21
2024-01-01T14:08:34.361Z,61.82
2024-01-01T14:11:06.115Z,61.96
2024-01-01T14:13:33.208Z,61.93
2024-01-01T14:16:00.235Z,61.99
2024-01-01T14:18:27.335Z,61.85
2024-01-01T14:20:54.426Z,61.87
2024-01-01T14:23:21.545Z,61.63
2024-01-01T14:25:48.668Z,61.80
2024-01-01T14:28:18.321Z,61.62
2024-01-01T14:30:45.483Z,61.52
2024-01-01T14:33:12.609Z,61.55
2024-01-01T14:35:39.765Z,61.64
2024-01-01T14:38:06.959Z,61.45
2024-01-01T14:40:34.040Z,60.83
2024-01-01T14:43:01.163Z,60.41
2024-01-01T14:45:31.201Z,60.13
2024-01-01T14:47:58.315Z,60.77
2024-01-01T14:50:25.474Z,60.25
2024-01-01T14:52:52.515Z,60.08
2024-01-01T14:55:19.531Z,60.18
2024-01-01T14:57:46.607Z,60.20
2024-01-01T15:00:14.735Z,60.03
2024-01-01T15:02:44.408Z,59.80
2024-01-01T15:05:11.651Z,59.62
2024-01-01T15:07:38.750Z,59.83
2024-01-01T15:10:06.738Z,60.08
2024-01-01T15:12:33.788Z,59.98
2024-01-01T15:15:02.427Z,60.00
2024-01-01T15:17:30.123Z,59.73
2024-01-01T15:20:00.168Z,60.09
2024-01-01T15:22:27.219Z,60.22
2024-01-01T15:24:54.322Z,60.19
2024-01-01T15:27:21.439Z,60.54
2024-01-01T15:29:48.480Z,60.62
2024-01-01T15:32:15.517Z,60.74
2024-01-01T15:34:43.187Z,61.00
2024-01-01T15:37:12.908Z,61.16
2024-01-01T15:39:39.960Z,61.26
2024-01-01T15:42:07.194Z,61.16
2024-01-01T15:44:34.286Z,61.04
2024-01-01T15:47:05.077Z,60.89
2024-01-01T15:49:32.199Z,61.11
2024-01-01T15:51:59.293Z,60.81
2024-01-01T15:54:28.906Z,60.90
2024-01-01T15:56:56.012Z,60.78
2024-01-01T15:59:23.191Z,60.90
2024-01-01T16:01:50.421Z,60.96
2024-01-01T16:04:17.557Z,60.90
2024-01-01T16:06:44.624Z,60.70
2024-01-01T16:09:11.668Z,60.74
2024-01-01T16:11:41.503Z,60.47
2024-01-01T16:14:08.635Z,60.60
2024-01-01T16:16:35.680Z,60.70
2024-01-01T16:19:05.070Z,60.86
2024-01-01T16:21:35.827Z,60.67
2024-01-01T16:24:03.058Z,60.48
2024-01-01T16:26:30.212Z,59.92
2024-01-01T16:28:59.909Z,60.01
2024-01-01T16:31:26.979Z,59.75
2024-01-01T16:33:54.198Z,59.75
2024-01-01T16:36:21.365Z,59.57
2024-01-01T16:38:48.476Z,59.57
2024-01-01T16:41:15.478Z,59.57
2024-01-01T16:43:42.513Z,59.49
2024-01-01T16:46:12.224Z,59.38
2024-01-01T16:48:39.410Z,59.34
2024-01-01T16:51:06.582Z,59.20
2024-01-01T16:53:34.195Z,59.40
2024-01-01T16:56:01.402Z,59.59
2024-01-01T16:58:28.451Z,59.59
2024-01-01T17:00:55.534Z,60.28
2024-01-01T17:03:25.176Z,61.52
2024-01-01T17:05:52.376Z,62.17
2024-01-01T17:08:19.453Z,63.09
2024-01-01T17:10:46.583Z,63.65
2024-01-01T17:13:13.622Z,63.75
2024-01-01T17:15:40.578Z,63.99
2024-01-01T17:18:07.690Z,64.24
2024-01-01T17:20:37.411Z,64.29
2024-01-01T17:23:05.936Z,64.42
2024-01-01T17:25:33.401Z,64.29
2024-01-01T17:28:00.454Z,64.31
2024-01-01T17:30:27.522Z,64.10
2024-01-01T17:32:54.770Z,64.06
2024-01-01T17:35:22.006Z,63.91
2024-01-01T17:37:51.708Z,64.05
2024-01-01T17:40:18.723Z,63.78
2024-01-01T17:42:45.664Z,63.58
2024-01-01T17:45:12.761Z,63.46
2024-01-01T17:47:39.814Z,63.37
2024-01-01T17:50:07.510Z,63.12
2024-01-01T17:52:34.532Z,63.04
2024-01-01T17:55:04.857Z,62.75
2024-01-01T17:57:31.900Z,62.53
2024-01-01T17:59:58.931Z,62.64
2024-01-01T18:02:26.027Z,62.47
2024-01-01T18:04:53.200Z,61.95
2024-01-01T18:07:20.292Z,61.86
2024-01-01T18:09:47.316Z,61.75
2024-01-01T18:12:16.932Z,61.60
2024-01-01T18:14:44.034Z,61.49
2024-01-01T18:17:11.109Z,61.30
2024-01-01T18:19:38.275Z,61.42
2024-01-01T18:22:05.659Z,61.40
2024-01-01T18:24:32.754Z,61.43
2024-01-01T18:26:59.809Z,61.33
2024-01-01T18:29:29.521Z,61.12
2024-01-01T18:31:56.878Z,61.29
2024-01-01T18:34:24.929Z,61.10
2024-01-01T18:36:52.100Z,61.03
2024-01-01T18:39:19.270Z,61.00
2024-01-01T18:41:46.388Z,61.09
2024-01-01T18:44:13.467Z,60.95
2024-01-01T18:46:43.300Z,61.11
2024-01-01T18:49:10.728Z,61.08
2024-01-01T18:51:38.065Z,61.13
2024-01-01T18:54:05.209Z,61.09
2024-01-01T18:56:32.347Z,61.08
2024-01-01T18:58:59.441Z,60.89
2024-01-01T19:01:26.442Z,61.02
2024-01-01T19:04:01.373Z,60.98
2024-01-01T19:06:33.108Z,61.08
2024-01-01T19:09:00.216Z,61.02
2024-01-01T19:11:27.421Z,60.92
2024-01-01T19:13:54.494Z,61.36
2024-01-01T19:16:21.630Z,60.87
2024-01-01T19:18:48.958Z,61.09
2024-01-01T19:21:18.859Z,61.24
2024-01-01T19:23:45.910Z,61.23
2024-01-01T19:26:12.989Z,61.31
2024-01-01T19:28:40.093Z,61.60
2024-01-01T19:31:07.210Z,61.41
2024-01-01T19:33:34.308Z,61.55
2024-01-01T19:36:01.458Z,61.34
2024-01-01T19:38:31.073Z,61.48
2024-01-01T19:40:58.117Z,61.78
2024-01-01T19:43:25.198Z,61.94
2024-01-01T19:45:52.234Z,62.17
2024-01-01T19:48:19.303Z,62.27
2024-01-01T19:50:46.306Z,62.39
2024-01-01T19:53:23.962Z,62.35
2024-01-01T19:55:56.752Z,62.52
2024-01-01T19:58:23.719Z,62.76
2024-01-01T20:00:50.767Z,62.95
2024-01-01T20:03:17.994Z,63.13
2024-01-01T20:05:45.042Z,63.17
2024-01-01T20:08:12.171Z,62.99
2024-01-01T20:10:39.265Z,63.26
2024-01-01T20:13:09.054Z,63.48
2024-01-01T20:15:37.634Z,63.30
2024-01-01T20:18:05.642Z,63.63
2024-01-01T20:20:32.845Z,63.74
2024-01-01T20:23:00.093Z,63.61
2024-01-01T20:25:27.105Z,63.99
2024-01-01T20:27:54.125Z,63.96
2024-01-01T20:30:24.069Z,63.92
2024-01-01T20:32:51.313Z,64.05
2024-01-01T20:35:18.495Z,64.29
2024-01-01T20:37:45.548Z,64.23
2024-01-01T20:40:13.762Z,64.23
2024-01-01T20:42:40.818Z,64.22
2024-01-01T20:45:08.364Z,64.38
2024-01-01T20:47:38.089Z,64.41
2024-01-01T20:50:06.003Z,64.71
2024-01-01T20:52:37.032Z,65.08
2024-01-01T20:55:09.961Z,65.23
2024-01-01T20:57:36.956Z,65.08
2024-01-01T21:00:05.725Z,65.37
2024-01-01T21:02:32.959Z,65.31
2024-01-01T21:05:02.738Z,65.57
2024-01-01T21:07:30.956Z,65.70
2024-01-01T21:09:59.168Z,65.83
2024-01-01T21:12:26.256Z,65.93
2024-01-01T21:14:53.345Z,65.97
2024-01-01T21:17:20.365Z,65.93
2024-01-01T21:19:47.442Z,65.99
2024-01-01T21:22:17.048Z,65.85
2024-01-01T21:24:44.081Z,66.02
2024-01-01T21:27:11.239Z,66.14
2024-01-01T21:29:40.214Z,66.18
2024-01-01T21:32:07.394Z,66.06
2024-01-01T21:34:34.458Z,65.79
2024-01-01T21:37:01.722Z,65.72
2024-01-01T21:39:31.401Z,65.78
2024-01-01T21:41:58.572Z,65.88
2024-01-01T21:44:25.662Z,65.61
2024-01-01T21:46:52.721Z,65.58
2024-01-01T21:49:19.833Z,65.50
2024-01-01T21:51:47.188Z,65.50
2024-01-01T21:54:14.554Z,65.60
2024-01-01T21:56:44.261Z,65.61
2024-01-01T21:59:11.304Z,65.61
2024-01-01T22:01:38.365Z,65.69
2024-01-01T22:04:05.637Z,65.50
2024-01-01T22:06:32.714Z,65.40
2024-01-01T22:08:59.687Z,65.63
2024-01-01T22:11:26.733Z,65.54
2024-01-01T22:13:56.353Z,65.83
2024-01-01T22:16:23.439Z,65.79
2024-01-01T22:18:50.521Z,65.80
2024-01-01T22:21:18.054Z,65.52
2024-01-01T22:23:45.195Z,65.77
2024-01-01T22:26:12.738Z,65.75
2024-01-01T22:28:39.909Z,65.82
2024-01-01T22:31:09.496Z,65.85
2024-01-01T22:33:36.923Z,66.03
2024-01-01T22:36:05.271Z,66.11
2024-01-01T22:38:32.440Z,66.12
2024-01-01T22:40:59.556Z,66.24
2024-01-01T22:43:26.605Z,66.08
2024-01-01T22:45:53.682Z,66.40
2024-01-01T22:48:23.409Z,66.50
2024-01-01T22:50:50.440Z,66.49
2024-01-01T22:53:17.508Z,66.51
2024-01-01T22:55:44.561Z,66.48
2024-01-01T22:58:11.589Z,66.37
2024-01-01T23:00:38.695Z,66.43
2024-01-01T23:03:06.067Z,66.24
2024-01-01T23:05:35.926Z,66.00
2024-01-01T23:08:03.176Z,66.05
2024-01-01T23:10:30.480Z,66.26
2024-01-01T23:12:57.856Z,66.45
2024-01-01T23:15:24.925Z,65.97
2024-01-01T23:17:52.131Z,65.74
2024-01-01T23:20:19.894Z,65.84
2024-01-01T23:22:49.581Z,65.84
2024-01-01T23:25:16.746Z,65.78
2024-01-01T23:27:43.785Z,65.89
2024-01-01T23:30:11.206Z,66.00
2024-01-01T23:32:38.514Z,65.60
2024-01-01T23:35:05.866Z,65.69
2024-01-01T23:37:33.119Z,65.51
2024-01-01T23:40:02.695Z,65.75
2024-01-01T23:42:29.728Z,65.54
2024-01-01T23:44:56.784Z,65.47
2024-01-01T23:47:23.857Z,65.60
2024-01-01T23:49:51.024Z,65.59
2024-01-01T23:52:18.040Z,65.43
2024-01-01T23:54:45.015Z,65.26
2024-01-01T23:57:14.671Z,65.35
2024-01-01T23:59:41.668Z,65.41
